createdAt,value
2023-02-25T00:00:33.291Z,12.25
2023-02-25T00:03:02.186Z,12.22
2023-02-25T00:05:31.355Z,12.15
2023-02-25T00:07:58.801Z,12.05
2023-02-25T00:10:25.817Z,12.07
2023-02-25T00:12:52.790Z,11.98
2023-02-25T00:15:19.994Z,11.96
2023-02-25T00:17:46.822Z,11.81
2023-02-25T00:20:15.798Z,11.74
2023-02-25T00:22:42.617Z,11.67
2023-02-25T00:25:09.973Z,11.82
2023-02-25T00:27:38.656Z,11.83
2023-02-25T00:30:06.384Z,11.74
2023-02-25T00:32:33.217Z,11.99
2023-02-25T00:35:00.397Z,11.99
2023-02-25T00:37:28.575Z,12.05
2023-02-25T00:39:55.281Z,12.18
2023-02-25T00:42:22.474Z,12.23
2023-02-25T00:44:50.915Z,12.19
2023-02-25T00:47:19.844Z,12.19
2023-02-25T00:49:47.331Z,12.21
2023-02-25T00:52:15.214Z,12.26
2023-02-25T00:54:43.881Z,12.33
2023-02-25T00:57:10.590Z,12.30
2023-02-25T00:59:37.541Z,12.29
2023-02-25T01:02:04.882Z,12.43
2023-02-25T01:04:31.659Z,12.43
2023-02-25T01:06:58.716Z,12.35
2023-02-25T01:09:25.830Z,12.24
2023-02-25T01:11:54.302Z,12.01
2023-02-25T01:14:23.810Z,11.86
2023-02-25T01:16:51.860Z,11.78
2023-02-25T01:19:21.018Z,11.61
2023-02-25T01:21:49.661Z,11.59
2023-02-25T01:24:19.089Z,11.69
2023-02-25T01:26:46.619Z,11.76
2023-02-25T01:29:16.663Z,11.76
2023-02-25T01:31:44.746Z,11.70
2023-02-25T01:34:15.742Z,11.62
2023-02-25T01:36:42.616Z,11.55
2023-02-25T01:39:10.124Z,11.47
2023-02-25T01:41:37.800Z,11.42
2023-02-25T01:44:08.013Z,11.35
2023-02-25T01:46:36.923Z,11.26
2023-02-25T01:49:07.295Z,11.30
2023-02-25T01:51:34.569Z,11.26
2023-02-25T01:54:03.377Z,11.22
2023-02-25T01:56:31.554Z,11.15
2023-02-25T01:58:59.461Z,11.19
2023-02-25T02:01:31.759Z,11.19
2023-02-25T02:04:02.127Z,11.15
2023-02-25T02:06:34.863Z,11.29
2023-02-25T02:09:04.587Z,11.39
2023-02-25T02:11:31.463Z,11.43
2023-02-25T02:14:01.365Z,11.39
2023-02-25T02:16:47.160Z,11.29
2023-02-25T02:19:27.854Z,11.16
2023-02-25T02:22:05.229Z,11.00
2023-02-25T02:25:14.450Z,10.90
2023-02-25T02:28:10.514Z,10.77
2023-02-25T02:30:52.298Z,10.54
2023-02-25T02:33:27.898Z,10.43
2023-02-25T02:36:01.836Z,10.47
2023-02-25T02:38:37.986Z,10.42
2023-02-25T02:41:14.249Z,10.39
2023-02-25T02:43:45.961Z,10.27
2023-02-25T02:46:20.089Z,10.23
2023-02-25T02:48:53.819Z,10.11
2023-02-25T02:51:26.646Z,10.09
2023-02-25T02:53:56.520Z,10.03
2023-02-25T02:56:25.985Z,9.85
2023-02-25T02:58:59.325Z,9.75
2023-02-25T03:01:30.075Z,9.68
2023-02-25T03:04:02.287Z,9.73
2023-02-25T03:06:33.719Z,9.76
2023-02-25T03:09:04.817Z,9.79
2023-02-25T03:11:31.961Z,9.91
2023-02-25T03:13:58.743Z,9.99
2023-02-25T03:16:33.366Z,10.09
2023-02-25T03:19:07.859Z,10.18
2023-02-25T03:21:41.917Z,10.38
2023-02-25T03:24:15.989Z,10.44
2023-02-25T03:26:43.046Z,10.46
2023-02-25T03:29:16.579Z,10.42
2023-02-25T03:31:48.328Z,10.32
2023-02-25T03:34:19.017Z,10.30
2023-02-25T03:36:49.744Z,10.36
2023-02-25T03:39:20.909Z,10.38
2023-02-25T03:41:51.709Z,10.15
2023-02-25T03:44:28.604Z,10.16
2023-02-25T03:46:58.083Z,10.29
2023-02-25T03:49:30.751Z,10.05
2023-02-25T03:52:03.199Z,9.85
2023-02-25T03:54:30.407Z,9.68
2023-02-25T03:56:57.209Z,9.70
2023-02-25T03:59:24.135Z,9.72
2023-02-25T04:01:54.157Z,9.65
2023-02-25T04:04:22.000Z,9.77
2023-02-25T04:06:50.403Z,9.58
2023-02-25T04:09:17.504Z,9.67
2023-02-25T04:11:44.418Z,9.78
2023-02-25T04:14:11.292Z,9.78
2023-02-25T04:16:38.366Z,9.80
2023-02-25T04:19:05.116Z,9.78
2023-02-25T04:21:34.320Z,9.72
2023-02-25T04:24:04.117Z,9.69
2023-02-25T04:26:31.242Z,9.76
2023-02-25T04:28:58.257Z,9.71
2023-02-25T04:31:25.786Z,9.67
2023-02-25T04:33:52.988Z,9.60
2023-02-25T04:36:25.679Z,9.50
2023-02-25T04:38:53.845Z,9.44
2023-02-25T04:41:22.938Z,9.48
2023-02-25T04:43:50.207Z,9.39
2023-02-25T04:46:17.020Z,9.35
2023-02-25T04:48:43.814Z,9.35
2023-02-25T04:51:10.871Z,9.29
2023-02-25T04:53:37.737Z,9.18
2023-02-25T04:56:06.349Z,9.11
2023-02-25T04:58:35.436Z,8.97
2023-02-25T05:01:04.157Z,8.83
2023-02-25T05:03:31.394Z,8.75
2023-02-25T05:05:58.972Z,8.81
2023-02-25T05:08:26.374Z,8.93
2023-02-25T05:10:53.608Z,8.91
2023-02-25T05:13:21.457Z,8.94
2023-02-25T05:15:50.236Z,8.86
2023-02-25T05:18:17.521Z,8.87
2023-02-25T05:20:46.503Z,8.89
2023-02-25T05:23:13.869Z,8.91
2023-02-25T05:25:41.310Z,8.64
2023-02-25T05:28:08.677Z,8.58
2023-02-25T05:30:38.124Z,8.51
2023-02-25T05:33:07.369Z,8.45
2023-02-25T05:35:34.493Z,8.44
2023-02-25T05:38:01.553Z,8.52
2023-02-25T05:40:28.734Z,8.62
2023-02-25T05:42:55.535Z,8.76
2023-02-25T05:45:22.591Z,8.70
2023-02-25T05:47:49.632Z,8.72
2023-02-25T05:50:18.469Z,8.78
2023-02-25T05:52:45.323Z,9.00
2023-02-25T05:55:12.632Z,9.09
2023-02-25T05:57:39.469Z,9.25
2023-02-25T06:00:07.534Z,9.27
2023-02-25T06:02:34.411Z,9.41
2023-02-25T06:05:01.250Z,9.52
2023-02-25T06:07:31.703Z,9.63
2023-02-25T06:09:58.362Z,9.85
2023-02-25T06:12:25.279Z,10.03
2023-02-25T06:14:52.075Z,10.14
2023-02-25T06:17:18.802Z,10.25
2023-02-25T06:19:45.668Z,10.30
2023-02-25T06:22:12.810Z,10.36
2023-02-25T06:24:41.379Z,10.35
2023-02-25T06:27:08.220Z,10.29
2023-02-25T06:29:35.049Z,10.21
2023-02-25T06:32:02.027Z,10.16
2023-02-25T06:34:32.428Z,10.09
2023-02-25T06:36:59.600Z,10.07
2023-02-25T06:39:26.876Z,9.93
2023-02-25T06:41:55.355Z,9.80
2023-02-25T06:44:22.126Z,9.63
2023-02-25T06:46:50.744Z,9.64
2023-02-25T06:49:17.736Z,9.46
2023-02-25T06:51:44.669Z,9.38
2023-02-25T06:54:11.441Z,9.25
2023-02-25T06:56:38.613Z,9.19
2023-02-25T06:59:07.078Z,9.05
2023-02-25T07:01:34.165Z,9.21
2023-02-25T07:04:01.087Z,9.31
2023-02-25T07:06:27.982Z,9.36
2023-02-25T07:08:54.822Z,9.32
2023-02-25T07:11:30.566Z,9.35
2023-02-25T07:13:57.832Z,9.48
2023-02-25T07:16:26.677Z,9.59
2023-02-25T07:18:53.831Z,9.71
2023-02-25T07:21:20.615Z,9.80
2023-02-25T07:23:47.496Z,9.95
2023-02-25T07:26:15.552Z,9.98
2023-02-25T07:28:43.191Z,10.05
2023-02-25T07:31:12.038Z,9.96
2023-02-25T07:33:40.446Z,10.10
2023-02-25T07:36:07.863Z,10.28
2023-02-25T07:38:34.922Z,10.18
2023-02-25T07:41:04.595Z,10.18
2023-02-25T07:43:31.467Z,10.26
2023-02-25T07:45:58.622Z,10.27
2023-02-25T07:48:25.771Z,10.43
2023-02-25T07:50:54.427Z,10.47
2023-02-25T07:53:21.261Z,10.70
2023-02-25T07:55:48.568Z,10.80
2023-02-25T07:58:15.473Z,10.84
2023-02-25T08:00:42.814Z,10.98
2023-02-25T08:03:09.605Z,11.07
2023-02-25T08:05:36.994Z,11.10
2023-02-25T08:08:06.059Z,11.25
2023-02-25T08:10:33.003Z,11.33
2023-02-25T08:13:00.119Z,11.40
2023-02-25T08:15:26.942Z,11.52
2023-02-25T08:17:54.073Z,11.64
2023-02-25T08:20:20.781Z,11.79
2023-02-25T08:22:47.809Z,11.81
2023-02-25T08:25:16.282Z,11.90
2023-02-25T08:27:43.145Z,11.99
2023-02-25T08:30:11.786Z,12.09
2023-02-25T08:32:38.907Z,12.14
2023-02-25T08:35:06.610Z,12.11
2023-02-25T08:37:33.765Z,12.07
2023-02-25T08:40:00.509Z,12.04
2023-02-25T08:42:28.658Z,12.07
2023-02-25T08:44:55.425Z,12.37
2023-02-25T08:47:22.667Z,12.36
2023-02-25T08:49:49.862Z,12.44
2023-02-25T08:52:16.719Z,12.55
2023-02-25T08:54:43.770Z,12.65
2023-02-25T08:57:10.834Z,12.73
2023-02-25T08:59:39.283Z,12.79
2023-02-25T09:02:10.438Z,12.83
2023-02-25T09:04:37.342Z,12.91
2023-02-25T09:07:04.168Z,12.92
2023-02-25T09:09:31.056Z,12.94
2023-02-25T09:11:57.944Z,12.88
2023-02-25T09:14:24.672Z,12.83
2023-02-25T09:16:53.316Z,12.71
2023-02-25T09:19:20.505Z,12.82
2023-02-25T09:21:47.309Z,12.96
2023-02-25T09:24:15.386Z,13.10
2023-02-25T09:26:42.289Z,13.21
2023-02-25T09:29:09.126Z,13.25
2023-02-25T09:31:37.511Z,13.19
2023-02-25T09:34:07.990Z,13.06
2023-02-25T09:36:35.807Z,13.18
2023-02-25T09:39:03.133Z,13.23
2023-02-25T09:41:35.794Z,13.23
2023-02-25T09:44:05.637Z,13.26
2023-02-25T09:46:34.924Z,13.12
2023-02-25T09:49:07.677Z,13.23
2023-02-25T09:51:39.259Z,13.32
2023-02-25T09:54:16.613Z,13.36
2023-02-25T09:56:43.527Z,13.56
2023-02-25T09:59:14.654Z,13.83
2023-02-25T10:01:46.754Z,14.10
2023-02-25T10:04:24.653Z,14.30
2023-02-25T10:06:52.828Z,14.33
2023-02-25T10:09:28.413Z,14.27
2023-02-25T10:12:06.897Z,14.24
2023-02-25T10:14:56.556Z,14.36
2023-02-25T10:17:32.796Z,14.91
2023-02-25T10:20:24.480Z,15.35
2023-02-25T10:23:00.061Z,15.61
2023-02-25T10:25:30.499Z,15.51
2023-02-25T10:28:01.475Z,15.22
2023-02-25T10:30:35.023Z,14.89
2023-02-25T10:33:07.296Z,14.97
2023-02-25T10:35:39.687Z,14.87
2023-02-25T10:38:06.882Z,14.87
2023-02-25T10:40:33.814Z,14.79
2023-02-25T10:43:03.310Z,14.47
2023-02-25T10:45:31.691Z,14.83
2023-02-25T10:48:06.015Z,14.96
2023-02-25T10:50:45.011Z,14.87
2023-02-25T10:53:16.754Z,14.92
2023-02-25T10:55:50.787Z,14.83
2023-02-25T10:58:32.183Z,14.86
2023-02-25T11:01:03.171Z,14.79
2023-02-25T11:03:32.578Z,14.89
2023-02-25T11:06:13.244Z,15.00
2023-02-25T11:08:41.553Z,15.04
2023-02-25T11:11:16.055Z,15.00
2023-02-25T11:13:44.163Z,15.09
2023-02-25T11:16:14.302Z,15.23
2023-02-25T11:18:42.088Z,15.54
2023-02-25T11:21:11.931Z,15.74
2023-02-25T11:23:45.944Z,15.93
2023-02-25T11:26:17.378Z,16.14
2023-02-25T11:28:48.036Z,16.07
2023-02-25T11:31:18.798Z,16.04
2023-02-25T11:33:51.521Z,16.04
2023-02-25T11:36:22.575Z,15.78
2023-02-25T11:39:05.995Z,15.31
2023-02-25T11:41:33.307Z,15.14
2023-02-25T11:44:17.470Z,14.71
2023-02-25T11:46:47.378Z,14.56
2023-02-25T11:49:23.518Z,14.60
2023-02-25T11:51:55.304Z,14.88
2023-02-25T11:54:31.767Z,14.86
2023-02-25T11:57:05.802Z,14.84
2023-02-25T11:59:36.914Z,14.77
2023-02-25T12:02:24.188Z,14.69
2023-02-25T12:05:35.972Z,15.13
2023-02-25T12:08:39.678Z,15.00
2023-02-25T12:11:52.443Z,15.17
2023-02-25T12:14:58.895Z,14.89
2023-02-25T12:18:17.562Z,14.76
2023-02-25T12:21:20.262Z,14.46
2023-02-25T12:24:33.330Z,14.66
2023-02-25T12:27:17.801Z,14.68
2023-02-25T12:30:07.261Z,14.84
2023-02-25T12:32:51.346Z,15.18
2023-02-25T12:35:43.738Z,15.77
2023-02-25T12:38:43.499Z,15.78
2023-02-25T12:41:28.206Z,16.22
2023-02-25T12:44:20.064Z,16.43
2023-02-25T12:47:03.213Z,16.18
2023-02-25T12:49:50.837Z,15.65
2023-02-25T12:52:24.455Z,15.56
2023-02-25T12:55:37.007Z,15.95
2023-02-25T12:58:22.914Z,15.90
2023-02-25T13:01:22.452Z,16.99
2023-02-25T13:04:10.414Z,17.23
2023-02-25T13:07:00.435Z,17.42
2023-02-25T13:09:50.241Z,17.13
2023-02-25T13:12:34.053Z,16.82
2023-02-25T13:15:09.480Z,17.20
2023-02-25T13:18:09.204Z,17.20
2023-02-25T13:20:50.783Z,17.13
2023-02-25T13:23:45.356Z,16.36
2023-02-25T13:26:35.300Z,15.71
2023-02-25T13:29:25.221Z,15.56
2023-02-25T13:32:04.397Z,15.37
2023-02-25T13:34:39.553Z,15.22
2023-02-25T13:37:27.948Z,15.72
2023-02-25T13:40:16.271Z,15.34
2023-02-25T13:42:57.823Z,15.24
2023-02-25T13:46:02.667Z,15.46
2023-02-25T13:49:04.803Z,14.52
2023-02-25T13:52:02.520Z,14.94
2023-02-25T13:54:58.869Z,14.97
2023-02-25T13:57:45.271Z,15.18
2023-02-25T14:00:51.483Z,15.36
2023-02-25T14:03:54.596Z,15.85
2023-02-25T14:06:42.286Z,16.14
2023-02-25T14:09:24.248Z,15.99
2023-02-25T14:12:11.663Z,15.85
2023-02-25T14:15:11.206Z,15.85
2023-02-25T14:17:53.058Z,16.18
2023-02-25T14:20:36.791Z,16.15
2023-02-25T14:23:12.743Z,16.07
2023-02-25T14:25:51.044Z,15.86
2023-02-25T14:28:27.089Z,15.82
2023-02-25T14:31:10.221Z,15.15
2023-02-25T14:34:03.676Z,15.31
2023-02-25T14:37:00.376Z,15.19
2023-02-25T14:39:38.917Z,14.87
2023-02-25T14:42:21.316Z,14.23
2023-02-25T14:44:57.090Z,13.29
2023-02-25T14:47:31.569Z,13.91
2023-02-25T14:50:03.866Z,13.89
2023-02-25T14:53:06.140Z,12.44
2023-02-25T14:56:19.255Z,12.74
2023-02-25T14:59:10.123Z,13.45
2023-02-25T15:01:45.849Z,13.25
2023-02-25T15:04:46.035Z,13.12
2023-02-25T15:07:32.804Z,13.28
2023-02-25T15:10:29.136Z,12.92
2023-02-25T15:13:22.338Z,13.29
2023-02-25T15:16:27.999Z,13.56
2023-02-25T15:19:29.672Z,14.21
2023-02-25T15:22:20.825Z,14.64
2023-02-25T15:24:48.682Z,14.39
2023-02-25T15:27:46.747Z,14.57
2023-02-25T15:30:15.558Z,13.89
2023-02-25T15:33:16.067Z,13.77
2023-02-25T15:36:26.307Z,14.19
2023-02-25T15:38:56.646Z,14.72
2023-02-25T15:41:41.675Z,15.06
2023-02-25T15:44:35.427Z,14.81
2023-02-25T15:47:27.461Z,14.66
2023-02-25T15:49:57.651Z,14.35
2023-02-25T15:52:54.014Z,14.27
2023-02-25T15:55:37.055Z,14.26
2023-02-25T15:58:38.795Z,14.16
2023-02-25T16:01:41.590Z,14.33
2023-02-25T16:04:45.029Z,14.15
2023-02-25T16:07:16.535Z,14.07
2023-02-25T16:09:49.857Z,14.10
2023-02-25T16:12:18.643Z,14.40
2023-02-25T16:14:46.363Z,14.32
2023-02-25T16:17:18.701Z,14.20
2023-02-25T16:19:51.012Z,14.19
2023-02-25T16:22:21.714Z,14.30
2023-02-25T16:24:50.848Z,14.46
2023-02-25T16:27:53.428Z,14.48
2023-02-25T16:30:27.788Z,14.36
2023-02-25T16:33:03.202Z,14.33
2023-02-25T16:35:35.429Z,14.23
2023-02-25T16:38:15.460Z,13.71
2023-02-25T16:40:43.947Z,13.98
2023-02-25T16:43:14.219Z,13.78
2023-02-25T16:45:53.361Z,13.60
2023-02-25T16:48:27.717Z,13.84
2023-02-25T16:50:55.634Z,13.68
2023-02-25T16:53:25.122Z,13.84
2023-02-25T16:55:58.077Z,13.89
2023-02-25T16:58:27.294Z,13.99
2023-02-25T17:00:57.924Z,14.20
2023-02-25T17:03:27.817Z,14.46
2023-02-25T17:06:05.311Z,14.63
2023-02-25T17:08:32.766Z,14.83
2023-02-25T17:11:01.636Z,14.76
2023-02-25T17:13:31.845Z,15.01
2023-02-25T17:16:03.223Z,15.15
2023-02-25T17:18:33.101Z,14.93
2023-02-25T17:21:03.569Z,14.70
2023-02-25T17:23:31.556Z,14.46
2023-02-25T17:25:59.573Z,14.30
2023-02-25T17:28:29.732Z,14.22
2023-02-25T17:31:09.070Z,14.01
2023-02-25T17:33:45.696Z,14.00
2023-02-25T17:36:14.016Z,14.02
2023-02-25T17:38:42.947Z,13.94
2023-02-25T17:41:15.556Z,14.11
2023-02-25T17:43:42.795Z,14.04
2023-02-25T17:46:26.798Z,13.67
2023-02-25T17:48:56.513Z,13.44
2023-02-25T17:51:35.304Z,13.79
2023-02-25T17:54:06.661Z,13.88
2023-02-25T17:56:37.954Z,13.64
2023-02-25T17:59:07.253Z,13.46
2023-02-25T18:01:51.977Z,13.64
2023-02-25T18:04:24.698Z,13.77
2023-02-25T18:06:52.543Z,13.51
2023-02-25T18:09:31.701Z,13.36
2023-02-25T18:12:01.024Z,13.51
2023-02-25T18:14:34.400Z,13.48
2023-02-25T18:17:13.237Z,13.33
2023-02-25T18:19:42.247Z,13.45
2023-02-25T18:22:30.984Z,13.45
2023-02-25T18:24:59.701Z,13.38
2023-02-25T18:27:28.893Z,13.29
2023-02-25T18:29:59.171Z,13.52
2023-02-25T18:32:27.930Z,13.60
2023-02-25T18:34:54.784Z,13.61
2023-02-25T18:37:21.760Z,13.64
2023-02-25T18:39:48.924Z,13.60
2023-02-25T18:42:17.995Z,13.66
2023-02-25T18:44:45.760Z,13.62
2023-02-25T18:47:14.485Z,13.55
2023-02-25T18:49:43.737Z,13.41
2023-02-25T18:52:17.944Z,13.32
2023-02-25T18:54:45.099Z,13.16
2023-02-25T18:57:22.094Z,12.99
2023-02-25T18:59:49.248Z,12.88
2023-02-25T19:02:33.100Z,12.66
2023-02-25T19:05:02.374Z,12.66
2023-02-25T19:07:30.951Z,12.53
2023-02-25T19:09:57.930Z,12.50
2023-02-25T19:12:27.596Z,12.36
2023-02-25T19:14:58.445Z,12.31
2023-02-25T19:17:28.042Z,12.19
2023-02-25T19:19:55.083Z,12.21
2023-02-25T19:22:24.805Z,12.10
2023-02-25T19:24:52.169Z,11.98
2023-02-25T19:27:22.237Z,11.86
2023-02-25T19:29:50.575Z,11.73
2023-02-25T19:32:18.597Z,11.79
2023-02-25T19:34:46.634Z,11.78
2023-02-25T19:37:15.340Z,11.87
2023-02-25T19:39:44.095Z,11.88
2023-02-25T19:42:11.240Z,11.62
2023-02-25T19:44:38.178Z,11.67
2023-02-25T19:47:06.307Z,11.78
2023-02-25T19:49:33.236Z,11.90
2023-02-25T19:52:00.418Z,11.65
2023-02-25T19:54:27.569Z,11.80
2023-02-25T19:56:55.844Z,11.81
2023-02-25T19:59:23.005Z,11.99
2023-02-25T20:01:50.250Z,12.49
2023-02-25T20:04:17.357Z,12.25
2023-02-25T20:06:44.212Z,12.19
2023-02-25T20:09:10.933Z,12.18
2023-02-25T20:11:37.780Z,12.34
2023-02-25T20:14:06.780Z,12.44
2023-02-25T20:16:34.339Z,12.32
2023-02-25T20:19:01.593Z,12.41
2023-02-25T20:21:28.860Z,12.32
2023-02-25T20:23:57.725Z,12.28
2023-02-25T20:26:25.864Z,12.31
2023-02-25T20:28:53.623Z,12.10
2023-02-25T20:31:22.735Z,12.05
2023-02-25T20:33:50.716Z,11.96
2023-02-25T20:36:20.185Z,11.86
2023-02-25T20:39:01.289Z,11.78
2023-02-25T20:41:28.731Z,11.67
2023-02-25T20:43:56.140Z,11.55
2023-02-25T20:46:26.733Z,11.41
2023-02-25T20:48:53.946Z,11.31
2023-02-25T20:51:21.268Z,11.29
2023-02-25T20:53:49.285Z,11.33
2023-02-25T20:56:23.109Z,11.18
2023-02-25T20:58:51.710Z,11.29
2023-02-25T21:01:18.925Z,11.23
2023-02-25T21:03:47.216Z,11.14
2023-02-25T21:06:15.771Z,11.16
2023-02-25T21:08:42.816Z,11.12
2023-02-25T21:11:10.077Z,11.19
2023-02-25T21:13:37.210Z,11.21
2023-02-25T21:16:06.470Z,11.30
2023-02-25T21:18:34.616Z,11.33
2023-02-25T21:21:06.819Z,11.42
2023-02-25T21:23:34.955Z,11.51
2023-02-25T21:26:02.568Z,11.62
2023-02-25T21:28:29.500Z,11.67
2023-02-25T21:31:01.173Z,11.81
2023-02-25T21:33:28.436Z,11.99
2023-02-25T21:35:56.665Z,11.98
2023-02-25T21:38:26.342Z,11.97
2023-02-25T21:40:53.205Z,12.06
2023-02-25T21:43:20.788Z,12.10
2023-02-25T21:45:54.228Z,11.96
2023-02-25T21:48:21.056Z,11.95
2023-02-25T21:50:47.927Z,11.90
2023-02-25T21:53:16.567Z,11.82
2023-02-25T21:55:46.257Z,11.64
2023-02-25T21:58:13.017Z,11.62
2023-02-25T22:00:40.646Z,11.52
2023-02-25T22:03:08.353Z,11.49
2023-02-25T22:05:35.164Z,11.49
2023-02-25T22:08:02.067Z,11.45
2023-02-25T22:10:28.965Z,11.38
2023-02-25T22:12:57.662Z,11.33
2023-02-25T22:15:24.836Z,11.26
2023-02-25T22:17:52.039Z,11.15
2023-02-25T22:20:19.137Z,11.07
2023-02-25T22:22:46.276Z,11.00
2023-02-25T22:25:13.065Z,10.97
2023-02-25T22:27:39.970Z,10.95
2023-02-25T22:30:11.441Z,10.87
2023-02-25T22:32:38.543Z,10.69
2023-02-25T22:35:06.212Z,10.52
2023-02-25T22:37:33.099Z,10.35
2023-02-25T22:39:59.979Z,10.16
2023-02-25T22:42:27.170Z,10.10
2023-02-25T22:44:54.324Z,10.09
2023-02-25T22:47:22.575Z,9.97
2023-02-25T22:49:49.402Z,10.03
2023-02-25T22:52:16.552Z,9.97
2023-02-25T22:54:43.340Z,9.82
2023-02-25T22:57:10.191Z,9.68
2023-02-25T22:59:37.089Z,9.43
2023-02-25T23:02:03.887Z,9.36
2023-02-25T23:04:33.126Z,9.28
2023-02-25T23:07:00.086Z,9.30
2023-02-25T23:09:26.882Z,9.45
2023-02-25T23:11:53.682Z,9.43
2023-02-25T23:14:20.905Z,9.56
2023-02-25T23:16:47.969Z,9.55
2023-02-25T23:19:17.367Z,9.56
2023-02-25T23:21:46.110Z,9.61
2023-02-25T23:24:13.808Z,9.64
2023-02-25T23:26:42.220Z,9.54
2023-02-25T23:29:10.933Z,9.39
2023-02-25T23:31:42.516Z,9.54
2023-02-25T23:34:12.315Z,9.65
2023-02-25T23:36:40.740Z,9.82
2023-02-25T23:39:10.731Z,9.95
2023-02-25T23:41:41.512Z,10.06
2023-02-25T23:44:08.853Z,10.24
2023-02-25T23:46:36.329Z,10.34
2023-02-25T23:49:05.226Z,10.33
2023-02-25T23:51:32.045Z,10.35
2023-02-25T23:54:01.674Z,10.47
2023-02-25T23:56:30.763Z,10.55
2023-02-25T23:58:58.082Z,10.66
